createdAt,value
2023-04-19T00:01:27.159Z,365.12
2023-04-19T00:04:38.509Z,359.16
2023-04-19T00:07:47.456Z,327.97
2023-04-19T00:10:59.209Z,316.78
2023-04-19T00:14:11.238Z,317.09
2023-04-19T00:17:18.395Z,318.78
2023-04-19T00:20:27.564Z,313.11
2023-04-19T00:23:34.531Z,317.10
2023-04-19T00:26:40.438Z,328.56
2023-04-19T00:29:47.289Z,314.55
2023-04-19T00:32:53.264Z,303.70
2023-04-19T00:36:03.028Z,299.61
2023-04-19T00:39:09.061Z,293.79
2023-04-19T00:42:24.352Z,292.94
2023-04-19T00:45:38.900Z,296.98
2023-04-19T00:48:46.026Z,299.02
2023-04-19T00:51:55.252Z,294.33
2023-04-19T00:55:02.857Z,292.15
2023-04-19T00:58:09.576Z,291.62
2023-04-19T01:01:19.887Z,283.62
2023-04-19T01:04:28.188Z,293.53
2023-04-19T01:07:38.263Z,306.55
2023-04-19T01:10:44.587Z,286.24
2023-04-19T01:13:51.404Z,295.74
2023-04-19T01:17:01.062Z,295.33
2023-04-19T01:20:11.130Z,289.69
2023-04-19T01:23:19.650Z,275.54
2023-04-19T01:26:27.672Z,257.61
2023-04-19T01:29:35.222Z,255.01
2023-04-19T01:32:42.001Z,240.33
2023-04-19T01:35:47.970Z,234.15
2023-04-19T01:38:57.387Z,234.37
2023-04-19T01:42:04.622Z,231.10
2023-04-19T01:45:13.320Z,228.34
2023-04-19T01:48:19.268Z,230.93
2023-04-19T01:51:31.617Z,230.87
2023-04-19T01:54:44.341Z,227.84
2023-04-19T01:57:53.350Z,237.50
2023-04-19T02:01:06.834Z,239.61
2023-04-19T02:04:16.907Z,245.30
2023-04-19T02:07:25.801Z,241.66
2023-04-19T02:10:34.651Z,235.92
2023-04-19T02:13:41.490Z,221.53
2023-04-19T02:16:50.761Z,215.06
2023-04-19T02:19:58.025Z,211.11
2023-04-19T02:23:09.027Z,237.19
2023-04-19T02:26:18.523Z,260.16
2023-04-19T02:29:24.422Z,276.81
2023-04-19T02:32:32.229Z,267.61
2023-04-19T02:35:38.335Z,246.24
2023-04-19T02:38:45.140Z,233.17
2023-04-19T02:42:05.370Z,223.72
2023-04-19T02:45:30.885Z,220.71
2023-04-19T02:48:36.749Z,231.82
2023-04-19T02:51:43.494Z,218.63
2023-04-19T02:54:53.745Z,204.64
2023-04-19T02:58:03.604Z,184.49
2023-04-19T03:01:10.256Z,186.86
2023-04-19T03:04:17.579Z,174.79
2023-04-19T03:07:34.067Z,182.01
2023-04-19T03:10:41.043Z,178.53
2023-04-19T03:13:50.964Z,175.14
2023-04-19T03:16:57.823Z,177.04
2023-04-19T03:20:13.550Z,176.34
2023-04-19T03:23:20.722Z,178.64
2023-04-19T03:26:28.995Z,179.88
2023-04-19T03:29:39.944Z,190.79
2023-04-19T03:32:55.379Z,197.03
2023-04-19T03:36:06.723Z,195.46
2023-04-19T03:39:13.830Z,191.66
2023-04-19T03:42:23.175Z,190.09
2023-04-19T03:46:06.802Z,185.89
2023-04-19T03:49:16.415Z,191.18
2023-04-19T03:52:26.155Z,206.70
2023-04-19T03:55:33.130Z,220.55
2023-04-19T03:58:54.833Z,248.02
2023-04-19T04:02:05.447Z,287.32
2023-04-19T04:05:12.993Z,299.87
2023-04-19T04:08:21.090Z,301.81
2023-04-19T04:11:27.009Z,299.44
2023-04-19T04:14:43.202Z,269.07
2023-04-19T04:17:56.771Z,233.25
2023-04-19T04:21:05.911Z,221.86
2023-04-19T04:24:14.540Z,215.94
2023-04-19T04:27:32.285Z,193.40
2023-04-19T04:30:38.935Z,179.78
2023-04-19T04:33:50.283Z,173.67
2023-04-19T04:36:59.025Z,167.52
2023-04-19T04:40:08.172Z,168.75
2023-04-19T04:43:14.499Z,174.72
2023-04-19T04:46:31.555Z,176.19
2023-04-19T04:49:40.378Z,172.12
2023-04-19T04:52:47.749Z,175.90
2023-04-19T04:56:10.423Z,201.41
2023-04-19T04:59:17.152Z,251.10
2023-04-19T05:02:27.324Z,278.07
2023-04-19T05:05:37.631Z,291.52
2023-04-19T05:08:43.586Z,328.29
2023-04-19T05:12:06.925Z,317.14
2023-04-19T05:15:14.145Z,294.37
2023-04-19T05:18:27.561Z,269.57
2023-04-19T05:21:37.516Z,268.24
2023-04-19T05:24:46.171Z,220.03
2023-04-19T05:27:59.786Z,190.06
2023-04-19T05:31:13.143Z,180.86
2023-04-19T05:34:30.653Z,184.07
2023-04-19T05:37:42.455Z,190.15
2023-04-19T05:40:54.409Z,180.70
2023-04-19T05:44:05.351Z,185.07
2023-04-19T05:47:11.992Z,176.14
2023-04-19T05:50:39.902Z,180.96
2023-04-19T05:54:16.083Z,178.43
2023-04-19T05:57:26.435Z,182.54
2023-04-19T06:00:32.887Z,182.72
2023-04-19T06:03:57.786Z,180.82
2023-04-19T06:07:21.719Z,178.46
2023-04-19T06:10:52.667Z,182.55
2023-04-19T06:14:01.918Z,175.51
2023-04-19T06:17:09.121Z,170.15
2023-04-19T06:20:16.036Z,176.82
2023-04-19T06:23:23.834Z,191.97
2023-04-19T06:26:39.380Z,199.31
2023-04-19T06:29:51.209Z,159.00
2023-04-19T06:32:57.534Z,110.71
2023-04-19T06:36:04.312Z,62.87
2023-04-19T06:39:11.080Z,60.27
2023-04-19T06:42:21.308Z,53.82
2023-04-19T06:45:27.483Z,46.19
2023-04-19T06:48:34.517Z,46.04
2023-04-19T06:51:43.213Z,39.43
2023-04-19T06:54:52.224Z,37.63
2023-04-19T06:58:11.343Z,36.95
2023-04-19T07:01:19.383Z,41.93
2023-04-19T07:04:25.476Z,50.30
2023-04-19T07:07:33.571Z,73.14
2023-04-19T07:10:39.616Z,69.01
2023-04-19T07:13:49.044Z,61.64
2023-04-19T07:16:56.865Z,48.34
2023-04-19T07:20:04.350Z,48.40
2023-04-19T07:23:10.775Z,46.86
2023-04-19T07:26:18.334Z,51.92
2023-04-19T07:29:26.853Z,57.25
2023-04-19T07:32:34.730Z,53.23
2023-04-19T07:35:42.828Z,49.66
2023-04-19T07:38:49.582Z,52.20
2023-04-19T07:41:55.537Z,57.24
2023-04-19T07:45:10.102Z,55.94
2023-04-19T07:48:16.517Z,58.68
2023-04-19T07:51:24.955Z,56.00
2023-04-19T07:54:31.756Z,55.46
2023-04-19T07:57:38.619Z,64.00
2023-04-19T08:00:47.142Z,63.94
2023-04-19T08:03:54.225Z,66.33
2023-04-19T08:07:00.403Z,71.24
2023-04-19T08:10:08.526Z,79.56
2023-04-19T08:13:14.832Z,85.64
2023-04-19T08:17:09.032Z,84.07
2023-04-19T08:19:53.331Z,67.17
2023-04-19T08:23:04.652Z,72.81
2023-04-19T08:26:17.011Z,65.28
2023-04-19T08:29:24.032Z,69.07
2023-04-19T08:32:32.556Z,98.48
2023-04-19T08:35:39.349Z,111.34
2023-04-19T08:38:49.193Z,96.75
2023-04-19T08:42:18.119Z,73.52
2023-04-19T08:45:36.095Z,53.14
2023-04-19T08:48:47.937Z,43.47
2023-04-19T08:51:58.123Z,44.09
2023-04-19T08:55:07.383Z,56.52
2023-04-19T08:58:23.435Z,62.70
2023-04-19T09:01:41.517Z,62.38
2023-04-19T09:04:51.809Z,64.63
2023-04-19T09:08:25.284Z,74.14
2023-04-19T09:11:41.611Z,82.92
2023-04-19T09:15:01.108Z,82.35
2023-04-19T09:18:11.173Z,76.30
2023-04-19T09:21:32.200Z,79.37
2023-04-19T09:27:53.625Z,75.61
2023-04-19T09:31:10.946Z,62.24
2023-04-19T09:34:29.090Z,60.82
2023-04-19T09:41:10.957Z,67.57
2023-04-19T09:47:30.374Z,76.39
2023-04-19T09:50:51.369Z,147.57
2023-04-19T09:54:06.857Z,217.14
2023-04-19T09:57:13.233Z,232.27
2023-04-19T10:00:21.932Z,190.77
2023-04-19T10:03:34.266Z,176.43
2023-04-19T10:07:06.949Z,181.66
2023-04-19T10:10:20.475Z,164.84
2023-04-19T10:13:29.630Z,177.64
2023-04-19T10:16:37.035Z,168.35
2023-04-19T10:19:51.811Z,172.93
2023-04-19T10:22:58.425Z,161.30
2023-04-19T10:26:08.220Z,163.02
2023-04-19T10:29:16.670Z,175.17
2023-04-19T10:32:24.784Z,179.72
2023-04-19T10:35:38.284Z,190.96
2023-04-19T10:38:48.798Z,197.11
2023-04-19T10:42:03.276Z,189.76
2023-04-19T10:45:37.632Z,189.85
2023-04-19T10:48:56.911Z,195.95
2023-04-19T10:52:03.787Z,203.72
2023-04-19T10:55:10.728Z,247.55
2023-04-19T10:58:20.122Z,254.44
2023-04-19T11:01:40.573Z,232.39
2023-04-19T11:05:06.401Z,205.63
2023-04-19T11:08:12.776Z,246.47
2023-04-19T11:11:20.110Z,221.30
2023-04-19T11:14:30.577Z,226.92
2023-04-19T11:17:38.909Z,237.93
2023-04-19T11:20:46.708Z,233.18
2023-04-19T11:24:09.361Z,276.12
2023-04-19T11:27:15.320Z,296.15
2023-04-19T11:30:31.741Z,300.70
2023-04-19T11:33:39.180Z,250.41
2023-04-19T11:36:54.368Z,262.70
2023-04-19T11:40:01.562Z,327.74
2023-04-19T11:43:09.509Z,229.76
2023-04-19T11:46:18.484Z,245.52
2023-04-19T11:49:30.643Z,253.96
2023-04-19T11:52:39.328Z,255.08
2023-04-19T11:55:48.898Z,262.30
2023-04-19T11:58:54.830Z,269.65
2023-04-19T12:02:12.848Z,272.05
2023-04-19T12:05:20.150Z,297.42
2023-04-19T12:08:39.385Z,285.65
2023-04-19T12:11:50.509Z,306.03
2023-04-19T12:14:57.328Z,298.95
2023-04-19T12:18:06.452Z,310.86
2023-04-19T12:21:14.405Z,301.42
2023-04-19T12:24:20.628Z,294.83
2023-04-19T12:27:27.688Z,305.43
2023-04-19T12:30:35.613Z,291.43
2023-04-19T12:33:45.066Z,329.99
2023-04-19T12:36:51.135Z,329.75
2023-04-19T12:39:57.886Z,376.82
2023-04-19T12:43:03.901Z,394.44
2023-04-19T12:46:10.721Z,399.36
2023-04-19T12:49:22.502Z,338.05
2023-04-19T12:52:29.364Z,391.55
2023-04-19T12:55:35.672Z,333.32
2023-04-19T12:58:42.835Z,344.24
2023-04-19T13:01:48.976Z,352.40
2023-04-19T13:04:58.493Z,338.12
2023-04-19T13:08:04.576Z,280.24
2023-04-19T13:11:11.306Z,339.74
2023-04-19T13:14:17.608Z,390.98
2023-04-19T13:17:26.628Z,313.11
2023-04-19T13:20:35.289Z,322.37
2023-04-19T13:23:42.121Z,339.82
2023-04-19T13:26:49.044Z,272.96
2023-04-19T13:29:58.006Z,277.07
2023-04-19T13:33:04.249Z,313.09
2023-04-19T13:36:14.586Z,424.98
2023-04-19T13:39:20.598Z,311.58
2023-04-19T13:42:29.033Z,376.82
2023-04-19T13:45:36.425Z,245.76
2023-04-19T13:48:43.509Z,350.96
2023-04-19T13:51:52.366Z,317.60
2023-04-19T13:54:59.115Z,266.16
2023-04-19T13:58:06.571Z,222.99
2023-04-19T14:01:13.891Z,257.69
2023-04-19T14:04:20.206Z,267.93
2023-04-19T14:07:29.906Z,292.47
2023-04-19T14:10:36.406Z,252.64
2023-04-19T14:13:45.726Z,287.31
2023-04-19T14:16:51.713Z,257.34
2023-04-19T14:20:02.218Z,248.56
2023-04-19T14:23:11.702Z,283.59
2023-04-19T14:26:19.091Z,262.49
2023-04-19T14:29:25.182Z,253.08
2023-04-19T14:32:32.451Z,242.74
2023-04-19T14:35:47.223Z,249.99
2023-04-19T14:38:56.640Z,268.48
2023-04-19T14:42:08.596Z,274.71
2023-04-19T14:45:31.167Z,269.40
2023-04-19T14:48:37.266Z,278.54
2023-04-19T14:51:44.084Z,290.31
2023-04-19T14:54:52.620Z,291.74
2023-04-19T14:57:59.407Z,311.79
2023-04-19T15:01:15.188Z,318.84
2023-04-19T15:04:22.530Z,296.31
2023-04-19T15:07:29.321Z,302.58
2023-04-19T15:10:39.901Z,309.13
2023-04-19T15:13:45.802Z,306.62
2023-04-19T15:16:52.578Z,314.50
2023-04-19T15:19:58.922Z,322.52
2023-04-19T15:23:09.147Z,334.93
2023-04-19T15:26:17.766Z,335.78
2023-04-19T15:29:24.719Z,339.36
2023-04-19T15:32:34.598Z,349.22
2023-04-19T15:35:41.629Z,357.96
2023-04-19T15:38:47.680Z,352.00
2023-04-19T15:41:59.558Z,360.04
2023-04-19T15:45:05.632Z,402.21
2023-04-19T15:48:12.637Z,378.97
2023-04-19T15:51:19.031Z,371.74
2023-04-19T15:54:25.930Z,360.03
2023-04-19T15:57:34.773Z,368.81
2023-04-19T16:00:41.605Z,379.41
2023-04-19T16:03:48.342Z,380.51
2023-04-19T16:06:55.717Z,390.67
2023-04-19T16:10:10.679Z,409.99
2023-04-19T16:13:20.994Z,382.57
2023-04-19T16:16:27.335Z,395.15
2023-04-19T16:19:34.136Z,384.10
2023-04-19T16:22:40.265Z,411.86
2023-04-19T16:25:47.162Z,421.83
2023-04-19T16:29:18.807Z,429.34
2023-04-19T16:32:26.313Z,400.34
2023-04-19T16:35:32.788Z,419.15
2023-04-19T16:38:39.729Z,375.32
2023-04-19T16:41:45.683Z,391.20
2023-04-19T16:44:55.157Z,475.56
2023-04-19T16:48:05.081Z,428.72
2023-04-19T16:51:11.952Z,410.55
2023-04-19T16:54:18.166Z,391.38
2023-04-19T16:57:26.385Z,382.74
2023-04-19T17:00:35.449Z,390.86
2023-04-19T17:03:42.468Z,386.11
2023-04-19T17:06:49.181Z,436.20
2023-04-19T17:09:56.174Z,447.80
2023-04-19T17:13:07.934Z,435.32
2023-04-19T17:16:17.664Z,436.83
2023-04-19T17:19:23.998Z,370.51
2023-04-19T17:22:31.033Z,389.04
2023-04-19T17:25:36.997Z,390.82
2023-04-19T17:28:44.701Z,419.45
2023-04-19T17:32:03.464Z,441.56
2023-04-19T17:35:16.132Z,432.82
2023-04-19T17:38:22.622Z,436.52
2023-04-19T17:41:29.383Z,407.30
2023-04-19T17:44:35.344Z,394.36
2023-04-19T17:47:46.934Z,411.18
2023-04-19T17:50:56.487Z,437.64
2023-04-19T17:54:03.381Z,425.61
2023-04-19T17:57:09.622Z,430.58
2023-04-19T18:00:18.261Z,443.39
2023-04-19T18:03:26.929Z,421.83
2023-04-19T18:06:33.848Z,430.93
2023-04-19T18:09:48.960Z,455.20
2023-04-19T18:12:56.156Z,425.63
2023-04-19T18:16:03.749Z,415.56
2023-04-19T18:19:13.206Z,420.99
2023-04-19T18:22:39.712Z,415.32
2023-04-19T18:25:59.494Z,426.22
2023-04-19T18:29:05.566Z,426.34
2023-04-19T18:32:12.491Z,426.30
2023-04-19T18:35:22.211Z,421.22
2023-04-19T18:38:29.251Z,431.07
2023-04-19T18:41:35.858Z,419.25
2023-04-19T18:44:53.916Z,447.42
2023-04-19T18:48:01.010Z,439.36
2023-04-19T18:51:16.019Z,464.73
2023-04-19T18:54:22.424Z,438.55
2023-04-19T18:57:30.629Z,430.94
2023-04-19T19:00:40.062Z,441.48
2023-04-19T19:04:12.769Z,448.05
2023-04-19T19:07:34.927Z,467.70
2023-04-19T19:13:51.856Z,476.46
2023-04-19T19:16:58.899Z,469.14
2023-04-19T19:20:05.341Z,470.05
2023-04-19T19:23:15.903Z,489.63
2023-04-19T19:26:35.565Z,489.19
2023-04-19T19:29:46.392Z,473.78
2023-04-19T19:32:57.978Z,447.31
2023-04-19T19:36:05.373Z,431.31
2023-04-19T19:39:14.209Z,448.49
2023-04-19T19:42:21.917Z,449.60
2023-04-19T19:45:33.137Z,435.99
2023-04-19T19:48:42.503Z,478.97
2023-04-19T19:51:58.496Z,512.79
2023-04-19T19:55:12.689Z,516.07
2023-04-19T20:01:33.548Z,490.96
2023-04-19T20:04:39.863Z,473.07
2023-04-19T20:08:01.266Z,464.98
2023-04-19T20:11:11.765Z,487.88
2023-04-19T20:14:18.554Z,508.22
2023-04-19T20:17:24.489Z,521.32
2023-04-19T20:20:31.803Z,504.04
2023-04-19T20:23:41.079Z,492.81
2023-04-19T20:26:50.835Z,493.34
2023-04-19T20:29:56.880Z,474.17
2023-04-19T20:33:04.263Z,467.55
2023-04-19T20:36:10.289Z,472.25
2023-04-19T20:39:19.291Z,500.28
2023-04-19T20:42:31.213Z,516.38
2023-04-19T20:45:37.912Z,493.17
2023-04-19T20:48:43.930Z,489.57
2023-04-19T20:51:51.969Z,475.83
2023-04-19T20:55:03.561Z,479.33
2023-04-19T20:58:15.108Z,497.34
2023-04-19T21:01:23.176Z,501.82
2023-04-19T21:04:31.342Z,513.13
2023-04-19T21:07:37.373Z,518.27
2023-04-19T21:10:44.062Z,524.87
2023-04-19T21:13:52.861Z,517.53
2023-04-19T21:16:59.839Z,512.09
2023-04-19T21:20:12.317Z,505.65
2023-04-19T21:23:19.323Z,495.85
2023-04-19T21:26:43.728Z,496.40
2023-04-19T21:30:01.211Z,492.24
2023-04-19T21:33:10.704Z,490.42
2023-04-19T21:36:17.523Z,495.04
2023-04-19T21:39:23.380Z,489.44
2023-04-19T21:42:30.225Z,474.77
2023-04-19T21:45:38.800Z,480.81
2023-04-19T21:48:49.222Z,477.31
2023-04-19T21:51:57.115Z,478.68
2023-04-19T21:55:04.022Z,472.43
2023-04-19T21:58:14.092Z,480.13
2023-04-19T22:01:23.615Z,465.72
2023-04-19T22:04:31.384Z,450.04
2023-04-19T22:07:38.946Z,443.00
2023-04-19T22:10:45.110Z,435.92
2023-04-19T22:13:52.033Z,417.50
2023-04-19T22:17:03.680Z,395.74
2023-04-19T22:20:13.106Z,396.87
2023-04-19T22:23:24.147Z,393.03
2023-04-19T22:26:31.107Z,395.61
2023-04-19T22:29:37.439Z,391.27
2023-04-19T22:32:46.943Z,400.99
2023-04-19T22:35:52.866Z,402.14
2023-04-19T22:38:59.728Z,398.74
2023-04-19T22:42:05.636Z,407.18
2023-04-19T22:45:13.948Z,414.09
2023-04-19T22:48:22.775Z,421.20
2023-04-19T22:51:29.714Z,419.34
2023-04-19T22:54:35.602Z,400.32
2023-04-19T22:57:43.328Z,386.22
2023-04-19T23:00:49.398Z,371.86
2023-04-19T23:03:58.833Z,376.91
2023-04-19T23:07:05.076Z,370.35
2023-04-19T23:10:13.619Z,372.13
2023-04-19T23:13:19.674Z,370.58
2023-04-19T23:16:29.104Z,387.46
2023-04-19T23:19:39.088Z,389.63
2023-04-19T23:22:46.218Z,383.40
2023-04-19T23:25:52.210Z,371.73
2023-04-19T23:28:59.285Z,369.65
2023-04-19T23:32:05.265Z,367.82
2023-04-19T23:35:20.651Z,371.01
2023-04-19T23:38:26.625Z,382.31
2023-04-19T23:41:33.375Z,391.17
2023-04-19T23:44:42.694Z,402.27
2023-04-19T23:47:50.725Z,421.72
2023-04-19T23:50:59.383Z,425.44
2023-04-19T23:54:06.106Z,437.50
2023-04-19T23:57:12.079Z,439.84
